sensor_id;sensor_type;location;lat;lon;timestamp;temperature;humidity
39019;DHT22;24786;51.984;5.872;2024-03-06T00:01:44;7.00;99.90
39019;DHT22;24786;51.984;5.872;2024-03-06T00:04:10;7.00;99.90
39019;DHT22;24786;51.984;5.872;2024-03-06T00:06:35;7.00;99.90
39019;DHT22;24786;51.984;5.872;2024-03-06T00:09:01;7.00;99.90
39019;DHT22;24786;51.984;5.872;2024-03-06T00:11:28;7.00;99.90
39019;DHT22;24786;51.984;5.872;2024-03-06T00:13:54;7.00;99.90
39019;DHT22;24786;51.984;5.872;2024-03-06T00:16:20;7.00;99.90
39019;DHT22;24786;51.984;5.872;2024-03-06T00:18:45;7.00;99.90
39019;DHT22;24786;51.984;5.872;2024-03-06T00:21:11;7.00;99.90
39019;DHT22;24786;51.984;5.872;2024-03-06T00:23:37;6.90;99.90
39019;DHT22;24786;51.984;5.872;2024-03-06T00:26:03;6.90;99.90
39019;DHT22;24786;51.984;5.872;2024-03-06T00:36:08;6.70;99.90
39019;DHT22;24786;51.984;5.872;2024-03-06T00:41:02;6.70;99.90
39019;DHT22;24786;51.984;5.872;2024-03-06T00:43:27;6.70;99.90
39019;DHT22;24786;51.984;5.872;2024-03-06T00:45:53;6.60;99.90
39019;DHT22;24786;51.984;5.872;2024-03-06T00:48:18;6.60;99.90
39019;DHT22;24786;51.984;5.872;2024-03-06T00:50:46;6.50;99.90
39019;DHT22;24786;51.984;5.872;2024-03-06T00:53:12;6.50;99.90
39019;DHT22;24786;51.984;5.872;2024-03-06T00:55:37;6.50;99.90
39019;DHT22;24786;51.984;5.872;2024-03-06T00:58:03;6.50;99.90
39019;DHT22;24786;51.984;5.872;2024-03-06T01:00:29;6.40;99.90
39019;DHT22;24786;51.984;5.872;2024-03-06T01:02:55;6.40;99.90
39019;DHT22;24786;51.984;5.872;2024-03-06T01:05:21;6.30;99.90
39019;DHT22;24786;51.984;5.872;2024-03-06T01:07:46;6.30;99.90
39019;DHT22;24786;51.984;5.872;2024-03-06T01:10:12;6.30;99.90
39019;DHT22;24786;51.984;5.872;2024-03-06T01:12:41;6.20;99.90
39019;DHT22;24786;51.984;5.872;2024-03-06T01:15:12;6.20;99.90
39019;DHT22;24786;51.984;5.872;2024-03-06T01:18:02;6.10;99.90
39019;DHT22;24786;51.984;5.872;2024-03-06T01:24:17;6.00;99.90
39019;DHT22;24786;51.984;5.872;2024-03-06T01:27:12;6.00;99.90
39019;DHT22;24786;51.984;5.872;2024-03-06T01:32:59;6.00;99.90
39019;DHT22;24786;51.984;5.872;2024-03-06T01:35:25;6.00;99.90
39019;DHT22;24786;51.984;5.872;2024-03-06T01:37:50;6.00;99.90
39019;DHT22;24786;51.984;5.872;2024-03-06T01:40:43;6.00;99.90
39019;DHT22;24786;51.984;5.872;2024-03-06T01:43:25;5.90;99.90
39019;DHT22;24786;51.984;5.872;2024-03-06T01:45:51;5.80;99.90
39019;DHT22;24786;51.984;5.872;2024-03-06T01:48:37;5.80;99.90
39019;DHT22;24786;51.984;5.872;2024-03-06T01:51:04;5.70;99.90
39019;DHT22;24786;51.984;5.872;2024-03-06T01:53:45;5.70;99.90
39019;DHT22;24786;51.984;5.872;2024-03-06T01:56:31;5.70;99.90
39019;DHT22;24786;51.984;5.872;2024-03-06T01:59:26;5.70;99.90
39019;DHT22;24786;51.984;5.872;2024-03-06T02:01:54;5.70;99.90
39019;DHT22;24786;51.984;5.872;2024-03-06T02:04:20;5.70;99.90
39019;DHT22;24786;51.984;5.872;2024-03-06T02:06:49;5.60;99.90
39019;DHT22;24786;51.984;5.872;2024-03-06T02:09:15;5.60;99.90
39019;DHT22;24786;51.984;5.872;2024-03-06T02:11:49;5.50;99.90
39019;DHT22;24786;51.984;5.872;2024-03-06T02:14:19;5.50;99.90
39019;DHT22;24786;51.984;5.872;2024-03-06T02:16:45;5.50;99.90
39019;DHT22;24786;51.984;5.872;2024-03-06T02:19:16;5.50;99.90
39019;DHT22;24786;51.984;5.872;2024-03-06T02:21:48;5.60;99.90
39019;DHT22;24786;51.984;5.872;2024-03-06T02:24:23;5.50;99.90
39019;DHT22;24786;51.984;5.872;2024-03-06T02:26:49;5.50;99.90
39019;DHT22;24786;51.984;5.872;2024-03-06T02:29:15;5.50;99.90
39019;DHT22;24786;51.984;5.872;2024-03-06T02:31:58;5.50;99.90
39019;DHT22;24786;51.984;5.872;2024-03-06T02:34:32;5.40;99.90
39019;DHT22;24786;51.984;5.872;2024-03-06T02:36:58;5.40;99.90
39019;DHT22;24786;51.984;5.872;2024-03-06T02:39:26;5.40;99.90
39019;DHT22;24786;51.984;5.872;2024-03-06T02:41:58;5.40;99.90
39019;DHT22;24786;51.984;5.872;2024-03-06T02:44:23;5.30;99.90
39019;DHT22;24786;51.984;5.872;2024-03-06T02:46:49;5.30;99.90
39019;DHT22;24786;51.984;5.872;2024-03-06T02:49:34;5.30;99.90
39019;DHT22;24786;51.984;5.872;2024-03-06T02:52:01;5.20;99.90
39019;DHT22;24786;51.984;5.872;2024-03-06T02:54:27;5.10;99.90
39019;DHT22;24786;51.984;5.872;2024-03-06T02:57:10;5.10;99.90
39019;DHT22;24786;51.984;5.872;2024-03-06T02:59:35;5.10;99.90
39019;DHT22;24786;51.984;5.872;2024-03-06T03:02:01;5.00;99.90
39019;DHT22;24786;51.984;5.872;2024-03-06T03:04:31;5.10;99.90
39019;DHT22;24786;51.984;5.872;2024-03-06T03:07:12;5.00;99.90
39019;DHT22;24786;51.984;5.872;2024-03-06T03:09:44;5.10;99.90
39019;DHT22;24786;51.984;5.872;2024-03-06T03:12:09;5.00;99.90
39019;DHT22;24786;51.984;5.872;2024-03-06T03:14:52;5.00;99.90
39019;DHT22;24786;51.984;5.872;2024-03-06T03:17:27;5.00;99.90
39019;DHT22;24786;51.984;5.872;2024-03-06T03:19:52;5.10;99.90
39019;DHT22;24786;51.984;5.872;2024-03-06T03:23:08;5.10;99.90
39019;DHT22;24786;51.984;5.872;2024-03-06T03:25:37;5.10;99.90
39019;DHT22;24786;51.984;5.872;2024-03-06T03:28:03;5.10;99.90
39019;DHT22;24786;51.984;5.872;2024-03-06T03:30:29;5.20;99.90
39019;DHT22;24786;51.984;5.872;2024-03-06T03:32:54;5.20;99.90
39019;DHT22;24786;51.984;5.872;2024-03-06T03:35:20;5.30;99.90
39019;DHT22;24786;51.984;5.872;2024-03-06T03:37:53;5.20;99.90
39019;DHT22;24786;51.984;5.872;2024-03-06T03:40:19;5.20;99.90
39019;DHT22;24786;51.984;5.872;2024-03-06T03:42:44;5.20;99.90
39019;DHT22;24786;51.984;5.872;2024-03-06T03:45:10;5.20;99.90
39019;DHT22;24786;51.984;5.872;2024-03-06T03:47:52;5.20;99.90
39019;DHT22;24786;51.984;5.872;2024-03-06T03:50:36;5.30;99.90
39019;DHT22;24786;51.984;5.872;2024-03-06T03:53:17;5.20;99.90
39019;DHT22;24786;51.984;5.872;2024-03-06T03:55:42;5.20;99.90
39019;DHT22;24786;51.984;5.872;2024-03-06T03:58:08;5.30;99.90
39019;DHT22;24786;51.984;5.872;2024-03-06T04:00:36;5.20;99.90
39019;DHT22;24786;51.984;5.872;2024-03-06T04:03:03;5.30;99.90
39019;DHT22;24786;51.984;5.872;2024-03-06T04:05:48;5.30;99.90
39019;DHT22;24786;51.984;5.872;2024-03-06T04:08:14;5.20;99.90
39019;DHT22;24786;51.984;5.872;2024-03-06T04:11:01;5.20;99.90
39019;DHT22;24786;51.984;5.872;2024-03-06T04:13:26;5.20;99.90
39019;DHT22;24786;51.984;5.872;2024-03-06T04:16:08;5.20;99.90
39019;DHT22;24786;51.984;5.872;2024-03-06T04:18:35;5.10;99.90
39019;DHT22;24786;51.984;5.872;2024-03-06T04:21:13;5.10;99.90
39019;DHT22;24786;51.984;5.872;2024-03-06T04:23:40;5.10;99.90
39019;DHT22;24786;51.984;5.872;2024-03-06T04:26:18;5.10;99.90
39019;DHT22;24786;51.984;5.872;2024-03-06T04:28:44;5.10;99.90
39019;DHT22;24786;51.984;5.872;2024-03-06T04:31:22;5.10;99.90
39019;DHT22;24786;51.984;5.872;2024-03-06T04:36:51;5.00;99.90
39019;DHT22;24786;51.984;5.872;2024-03-06T04:39:17;4.90;99.90
39019;DHT22;24786;51.984;5.872;2024-03-06T04:41:43;4.80;99.90
39019;DHT22;24786;51.984;5.872;2024-03-06T04:44:08;4.80;99.90
39019;DHT22;24786;51.984;5.872;2024-03-06T04:46:34;4.80;99.90
39019;DHT22;24786;51.984;5.872;2024-03-06T04:49:00;4.80;99.90
39019;DHT22;24786;51.984;5.872;2024-03-06T04:54:48;4.70;99.90
39019;DHT22;24786;51.984;5.872;2024-03-06T05:00:35;4.60;99.90
39019;DHT22;24786;51.984;5.872;2024-03-06T05:03:03;4.60;99.90
39019;DHT22;24786;51.984;5.872;2024-03-06T05:05:29;4.50;99.90
39019;DHT22;24786;51.984;5.872;2024-03-06T05:07:55;4.50;99.90
39019;DHT22;24786;51.984;5.872;2024-03-06T05:10:26;4.50;99.90
39019;DHT22;24786;51.984;5.872;2024-03-06T05:13:10;4.50;99.90
39019;DHT22;24786;51.984;5.872;2024-03-06T05:15:36;4.50;99.90
39019;DHT22;24786;51.984;5.872;2024-03-06T05:18:14;4.50;99.90
39019;DHT22;24786;51.984;5.872;2024-03-06T05:20:39;4.40;99.90
39019;DHT22;24786;51.984;5.872;2024-03-06T05:23:39;4.50;99.90
39019;DHT22;24786;51.984;5.872;2024-03-06T05:29:27;4.60;99.90
39019;DHT22;24786;51.984;5.872;2024-03-06T05:31:54;4.60;99.90
39019;DHT22;24786;51.984;5.872;2024-03-06T05:34:36;4.50;99.90
39019;DHT22;24786;51.984;5.872;2024-03-06T05:37:01;4.60;99.90
39019;DHT22;24786;51.984;5.872;2024-03-06T05:39:32;4.60;99.90
39019;DHT22;24786;51.984;5.872;2024-03-06T05:42:02;4.60;99.90
39019;DHT22;24786;51.984;5.872;2024-03-06T05:44:37;4.60;99.90
39019;DHT22;24786;51.984;5.872;2024-03-06T05:47:18;4.60;99.90
39019;DHT22;24786;51.984;5.872;2024-03-06T05:49:45;4.70;99.90
39019;DHT22;24786;51.984;5.872;2024-03-06T05:52:20;4.70;99.90
39019;DHT22;24786;51.984;5.872;2024-03-06T05:54:45;4.60;99.90
39019;DHT22;24786;51.984;5.872;2024-03-06T05:57:11;4.70;99.90
39019;DHT22;24786;51.984;5.872;2024-03-06T05:59:55;4.70;99.90
39019;DHT22;24786;51.984;5.872;2024-03-06T06:02:28;4.70;99.90
39019;DHT22;24786;51.984;5.872;2024-03-06T06:04:56;4.70;99.90
39019;DHT22;24786;51.984;5.872;2024-03-06T06:07:25;4.70;99.90
39019;DHT22;24786;51.984;5.872;2024-03-06T06:09:50;4.70;99.90
39019;DHT22;24786;51.984;5.872;2024-03-06T06:12:16;4.70;99.90
39019;DHT22;24786;51.984;5.872;2024-03-06T06:14:53;4.60;99.90
39019;DHT22;24786;51.984;5.872;2024-03-06T06:17:42;4.70;99.90
39019;DHT22;24786;51.984;5.872;2024-03-06T06:20:21;4.60;99.90
39019;DHT22;24786;51.984;5.872;2024-03-06T06:22:47;4.60;99.90
39019;DHT22;24786;51.984;5.872;2024-03-06T06:25:13;4.60;99.90
39019;DHT22;24786;51.984;5.872;2024-03-06T06:27:48;4.70;99.90
39019;DHT22;24786;51.984;5.872;2024-03-06T06:30:15;4.60;99.90
39019;DHT22;24786;51.984;5.872;2024-03-06T06:32:41;4.60;99.90
39019;DHT22;24786;51.984;5.872;2024-03-06T06:35:08;4.70;99.90
39019;DHT22;24786;51.984;5.872;2024-03-06T06:37:35;4.70;99.90
39019;DHT22;24786;51.984;5.872;2024-03-06T06:40:06;4.60;99.90
39019;DHT22;24786;51.984;5.872;2024-03-06T06:42:33;4.70;99.90
39019;DHT22;24786;51.984;5.872;2024-03-06T06:44:59;4.70;99.90
39019;DHT22;24786;51.984;5.872;2024-03-06T06:47:26;4.70;99.90
39019;DHT22;24786;51.984;5.872;2024-03-06T06:49:55;4.70;99.90
39019;DHT22;24786;51.984;5.872;2024-03-06T06:52:21;4.70;99.90
39019;DHT22;24786;51.984;5.872;2024-03-06T06:54:52;4.80;99.90
39019;DHT22;24786;51.984;5.872;2024-03-06T06:57:18;4.80;99.90
39019;DHT22;24786;51.984;5.872;2024-03-06T06:59:46;4.80;99.90
39019;DHT22;24786;51.984;5.872;2024-03-06T07:02:18;4.80;99.90
39019;DHT22;24786;51.984;5.872;2024-03-06T07:04:43;4.80;99.90
39019;DHT22;24786;51.984;5.872;2024-03-06T07:07:21;4.90;99.90
39019;DHT22;24786;51.984;5.872;2024-03-06T07:09:49;4.90;99.90
39019;DHT22;24786;51.984;5.872;2024-03-06T07:12:29;4.90;99.90
39019;DHT22;24786;51.984;5.872;2024-03-06T07:15:08;4.90;99.90
39019;DHT22;24786;51.984;5.872;2024-03-06T07:17:51;5.00;99.90
39019;DHT22;24786;51.984;5.872;2024-03-06T07:20:26;5.00;99.90
39019;DHT22;24786;51.984;5.872;2024-03-06T07:22:58;5.00;99.90
39019;DHT22;24786;51.984;5.872;2024-03-06T07:25:29;5.00;99.90
39019;DHT22;24786;51.984;5.872;2024-03-06T07:28:01;5.00;99.90
39019;DHT22;24786;51.984;5.872;2024-03-06T07:30:42;5.00;99.90
39019;DHT22;24786;51.984;5.872;2024-03-06T07:33:14;5.00;99.90
39019;DHT22;24786;51.984;5.872;2024-03-06T07:35:40;5.00;99.90
39019;DHT22;24786;51.984;5.872;2024-03-06T07:38:05;5.00;99.90
39019;DHT22;24786;51.984;5.872;2024-03-06T07:40:48;5.00;99.90
39019;DHT22;24786;51.984;5.872;2024-03-06T07:43:38;5.00;99.90
39019;DHT22;24786;51.984;5.872;2024-03-06T07:46:04;5.00;99.90
39019;DHT22;24786;51.984;5.872;2024-03-06T07:48:53;5.00;99.90
39019;DHT22;24786;51.984;5.872;2024-03-06T07:51:31;5.10;99.90
39019;DHT22;24786;51.984;5.872;2024-03-06T07:54:12;5.10;99.90
39019;DHT22;24786;51.984;5.872;2024-03-06T07:56:53;5.10;99.90
39019;DHT22;24786;51.984;5.872;2024-03-06T07:59:19;5.10;99.90
39019;DHT22;24786;51.984;5.872;2024-03-06T08:01:57;5.20;99.90
39019;DHT22;24786;51.984;5.872;2024-03-06T08:04:32;5.10;99.90
39019;DHT22;24786;51.984;5.872;2024-03-06T08:07:09;5.10;99.90
39019;DHT22;24786;51.984;5.872;2024-03-06T08:09:34;5.20;99.90
39019;DHT22;24786;51.984;5.872;2024-03-06T08:12:03;5.10;99.90
39019;DHT22;24786;51.984;5.872;2024-03-06T08:14:35;5.20;99.90
39019;DHT22;24786;51.984;5.872;2024-03-06T08:17:04;5.20;99.90
39019;DHT22;24786;51.984;5.872;2024-03-06T08:19:41;5.30;99.90
39019;DHT22;24786;51.984;5.872;2024-03-06T08:22:19;5.30;99.90
39019;DHT22;24786;51.984;5.872;2024-03-06T08:24:51;5.40;99.90
39019;DHT22;24786;51.984;5.872;2024-03-06T08:27:32;5.40;99.90
39019;DHT22;24786;51.984;5.872;2024-03-06T08:33:17;5.40;99.90
39019;DHT22;24786;51.984;5.872;2024-03-06T08:39:08;5.60;99.90
39019;DHT22;24786;51.984;5.872;2024-03-06T08:41:58;5.50;99.90
39019;DHT22;24786;51.984;5.872;2024-03-06T08:44:34;5.70;99.90
39019;DHT22;24786;51.984;5.872;2024-03-06T08:50:24;5.80;99.90
39019;DHT22;24786;51.984;5.872;2024-03-06T08:56:12;6.00;99.90
39019;DHT22;24786;51.984;5.872;2024-03-06T08:58:38;6.00;99.90
39019;DHT22;24786;51.984;5.872;2024-03-06T09:01:18;6.00;99.90
39019;DHT22;24786;51.984;5.872;2024-03-06T09:03:43;6.10;99.90
39019;DHT22;24786;51.984;5.872;2024-03-06T09:06:09;6.10;99.90
39019;DHT22;24786;51.984;5.872;2024-03-06T09:08:36;6.10;99.90
39019;DHT22;24786;51.984;5.872;2024-03-06T09:11:01;6.10;99.90
39019;DHT22;24786;51.984;5.872;2024-03-06T09:13:55;6.20;99.90
39019;DHT22;24786;51.984;5.872;2024-03-06T09:16:21;6.30;99.90
39019;DHT22;24786;51.984;5.872;2024-03-06T09:19:18;6.30;99.90
39019;DHT22;24786;51.984;5.872;2024-03-06T09:21:58;6.40;99.90
39019;DHT22;24786;51.984;5.872;2024-03-06T09:24:27;6.40;99.90
39019;DHT22;24786;51.984;5.872;2024-03-06T09:27:02;6.50;99.90
39019;DHT22;24786;51.984;5.872;2024-03-06T09:29:43;6.40;99.90
39019;DHT22;24786;51.984;5.872;2024-03-06T09:32:15;6.50;99.90
39019;DHT22;24786;51.984;5.872;2024-03-06T09:35:12;6.60;99.90
39019;DHT22;24786;51.984;5.872;2024-03-06T09:47:58;6.70;99.90
39019;DHT22;24786;51.984;5.872;2024-03-06T09:50:53;6.80;99.90
39019;DHT22;24786;51.984;5.872;2024-03-06T09:53:26;6.90;99.90
39019;DHT22;24786;51.984;5.872;2024-03-06T09:59:04;7.00;99.90
39019;DHT22;24786;51.984;5.872;2024-03-06T10:01:55;6.90;99.90
39019;DHT22;24786;51.984;5.872;2024-03-06T10:04:22;7.00;99.90
39019;DHT22;24786;51.984;5.872;2024-03-06T10:06:49;7.00;99.90
39019;DHT22;24786;51.984;5.872;2024-03-06T10:09:31;7.00;99.90
39019;DHT22;24786;51.984;5.872;2024-03-06T10:11:58;7.10;99.90
39019;DHT22;24786;51.984;5.872;2024-03-06T10:14:33;7.10;99.90
39019;DHT22;24786;51.984;5.872;2024-03-06T10:17:00;7.30;99.90
39019;DHT22;24786;51.984;5.872;2024-03-06T10:19:29;7.20;99.90
39019;DHT22;24786;51.984;5.872;2024-03-06T10:21:58;7.20;99.90
39019;DHT22;24786;51.984;5.872;2024-03-06T10:24:25;7.20;99.90
39019;DHT22;24786;51.984;5.872;2024-03-06T10:26:55;7.30;99.90
39019;DHT22;24786;51.984;5.872;2024-03-06T10:29:30;7.30;99.90
39019;DHT22;24786;51.984;5.872;2024-03-06T10:31:57;7.50;99.90
39019;DHT22;24786;51.984;5.872;2024-03-06T10:34:27;7.50;99.90
39019;DHT22;24786;51.984;5.872;2024-03-06T10:37:08;7.60;99.90
39019;DHT22;24786;51.984;5.872;2024-03-06T10:39:42;7.60;99.90
39019;DHT22;24786;51.984;5.872;2024-03-06T10:42:18;7.60;99.90
39019;DHT22;24786;51.984;5.872;2024-03-06T10:44:55;7.60;99.90
39019;DHT22;24786;51.984;5.872;2024-03-06T10:47:25;7.80;99.90
39019;DHT22;24786;51.984;5.872;2024-03-06T10:49:52;7.90;99.90
39019;DHT22;24786;51.984;5.872;2024-03-06T10:52:28;7.90;99.90
39019;DHT22;24786;51.984;5.872;2024-03-06T10:54:58;8.00;99.90
39019;DHT22;24786;51.984;5.872;2024-03-06T10:57:40;8.00;99.90
39019;DHT22;24786;51.984;5.872;2024-03-06T11:00:07;7.90;99.90
39019;DHT22;24786;51.984;5.872;2024-03-06T11:02:39;8.00;99.90
39019;DHT22;24786;51.984;5.872;2024-03-06T11:05:18;8.10;99.90
39019;DHT22;24786;51.984;5.872;2024-03-06T11:07:43;8.10;99.90
39019;DHT22;24786;51.984;5.872;2024-03-06T11:10:09;8.20;99.90
39019;DHT22;24786;51.984;5.872;2024-03-06T11:12:42;8.30;99.90
39019;DHT22;24786;51.984;5.872;2024-03-06T11:17:39;8.40;99.90
39019;DHT22;24786;51.984;5.872;2024-03-06T11:28:32;8.30;99.90
39019;DHT22;24786;51.984;5.872;2024-03-06T11:31:09;8.40;99.90
39019;DHT22;24786;51.984;5.872;2024-03-06T11:33:47;8.40;99.90
39019;DHT22;24786;51.984;5.872;2024-03-06T11:36:34;8.30;99.90
39019;DHT22;24786;51.984;5.872;2024-03-06T11:39:03;8.20;99.90
39019;DHT22;24786;51.984;5.872;2024-03-06T11:44:53;8.20;99.90
39019;DHT22;24786;51.984;5.872;2024-03-06T11:47:20;8.20;99.90
39019;DHT22;24786;51.984;5.872;2024-03-06T11:49:46;8.30;99.90
39019;DHT22;24786;51.984;5.872;2024-03-06T11:52:11;8.30;99.90
39019;DHT22;24786;51.984;5.872;2024-03-06T11:54:57;8.40;99.90
39019;DHT22;24786;51.984;5.872;2024-03-06T11:57:25;8.60;99.90
39019;DHT22;24786;51.984;5.872;2024-03-06T11:59:53;8.70;99.90
39019;DHT22;24786;51.984;5.872;2024-03-06T12:02:19;8.90;99.90
39019;DHT22;24786;51.984;5.872;2024-03-06T12:04:48;9.00;99.90
39019;DHT22;24786;51.984;5.872;2024-03-06T12:07:13;9.10;99.90
39019;DHT22;24786;51.984;5.872;2024-03-06T12:09:41;9.10;99.90
39019;DHT22;24786;51.984;5.872;2024-03-06T12:12:07;9.10;99.90
39019;DHT22;24786;51.984;5.872;2024-03-06T12:14:35;9.20;99.90
39019;DHT22;24786;51.984;5.872;2024-03-06T12:17:12;9.20;99.90
39019;DHT22;24786;51.984;5.872;2024-03-06T12:19:38;9.30;99.90
39019;DHT22;24786;51.984;5.872;2024-03-06T12:22:15;9.40;99.90
39019;DHT22;24786;51.984;5.872;2024-03-06T12:24:41;9.50;99.90
39019;DHT22;24786;51.984;5.872;2024-03-06T12:27:07;9.60;99.90
39019;DHT22;24786;51.984;5.872;2024-03-06T12:32:26;9.80;99.90
39019;DHT22;24786;51.984;5.872;2024-03-06T12:34:58;10.00;99.90
39019;DHT22;24786;51.984;5.872;2024-03-06T12:37:29;10.00;99.90
39019;DHT22;24786;51.984;5.872;2024-03-06T12:40:02;10.00;99.90
39019;DHT22;24786;51.984;5.872;2024-03-06T12:42:55;10.10;99.90
39019;DHT22;24786;51.984;5.872;2024-03-06T12:45:23;10.20;99.90
39019;DHT22;24786;51.984;5.872;2024-03-06T12:47:49;10.30;99.90
39019;DHT22;24786;51.984;5.872;2024-03-06T12:50:15;10.40;99.90
39019;DHT22;24786;51.984;5.872;2024-03-06T12:52:41;10.40;99.90
39019;DHT22;24786;51.984;5.872;2024-03-06T12:55:22;10.50;99.90
39019;DHT22;24786;51.984;5.872;2024-03-06T12:57:48;10.50;99.90
39019;DHT22;24786;51.984;5.872;2024-03-06T13:00:15;10.40;99.90
39019;DHT22;24786;51.984;5.872;2024-03-06T13:02:42;10.40;99.90
39019;DHT22;24786;51.984;5.872;2024-03-06T13:05:09;10.50;99.90
39019;DHT22;24786;51.984;5.872;2024-03-06T13:07:35;10.50;99.90
39019;DHT22;24786;51.984;5.872;2024-03-06T13:10:04;10.60;99.90
39019;DHT22;24786;51.984;5.872;2024-03-06T13:12:39;10.60;99.90
39019;DHT22;24786;51.984;5.872;2024-03-06T13:15:05;10.70;99.90
39019;DHT22;24786;51.984;5.872;2024-03-06T13:17:33;10.60;99.90
39019;DHT22;24786;51.984;5.872;2024-03-06T13:19:58;10.60;99.90
39019;DHT22;24786;51.984;5.872;2024-03-06T13:22:24;10.50;99.90
39019;DHT22;24786;51.984;5.872;2024-03-06T13:24:49;10.60;99.90
39019;DHT22;24786;51.984;5.872;2024-03-06T13:27:16;10.70;99.90
39019;DHT22;24786;51.984;5.872;2024-03-06T13:32:29;10.90;99.90
39019;DHT22;24786;51.984;5.872;2024-03-06T13:34:55;11.00;99.90
39019;DHT22;24786;51.984;5.872;2024-03-06T13:37:30;11.10;99.90
39019;DHT22;24786;51.984;5.872;2024-03-06T13:39:55;11.10;99.90
39019;DHT22;24786;51.984;5.872;2024-03-06T13:42:26;11.20;99.90
39019;DHT22;24786;51.984;5.872;2024-03-06T13:44:58;11.20;99.90
39019;DHT22;24786;51.984;5.872;2024-03-06T13:47:43;11.30;99.90
39019;DHT22;24786;51.984;5.872;2024-03-06T13:50:15;11.40;99.90
39019;DHT22;24786;51.984;5.872;2024-03-06T13:52:50;11.40;99.90
39019;DHT22;24786;51.984;5.872;2024-03-06T13:55:27;11.40;99.90
39019;DHT22;24786;51.984;5.872;2024-03-06T13:57:56;11.40;99.90
39019;DHT22;24786;51.984;5.872;2024-03-06T14:00:31;11.40;99.90
39019;DHT22;24786;51.984;5.872;2024-03-06T14:03:05;11.40;99.90
39019;DHT22;24786;51.984;5.872;2024-03-06T14:05:31;11.30;99.90
39019;DHT22;24786;51.984;5.872;2024-03-06T14:07:56;11.30;99.90
39019;DHT22;24786;51.984;5.872;2024-03-06T14:10:29;11.30;99.90
39019;DHT22;24786;51.984;5.872;2024-03-06T14:13:03;11.20;99.90
39019;DHT22;24786;51.984;5.872;2024-03-06T14:15:30;11.30;99.90
39019;DHT22;24786;51.984;5.872;2024-03-06T14:17:55;11.30;99.90
39019;DHT22;24786;51.984;5.872;2024-03-06T14:20:30;11.20;99.90
39019;DHT22;24786;51.984;5.872;2024-03-06T14:23:08;11.20;99.90
39019;DHT22;24786;51.984;5.872;2024-03-06T14:25:37;11.20;99.90
39019;DHT22;24786;51.984;5.872;2024-03-06T14:28:11;11.20;99.90
39019;DHT22;24786;51.984;5.872;2024-03-06T14:30:49;11.20;99.90
39019;DHT22;24786;51.984;5.872;2024-03-06T14:33:15;11.20;99.90
39019;DHT22;24786;51.984;5.872;2024-03-06T14:35:55;11.20;99.90
39019;DHT22;24786;51.984;5.872;2024-03-06T14:38:23;11.20;99.90
39019;DHT22;24786;51.984;5.872;2024-03-06T14:40:49;11.20;99.90
39019;DHT22;24786;51.984;5.872;2024-03-06T14:43:23;11.20;99.90
39019;DHT22;24786;51.984;5.872;2024-03-06T14:45:51;11.20;99.90
39019;DHT22;24786;51.984;5.872;2024-03-06T14:48:20;11.20;99.90
39019;DHT22;24786;51.984;5.872;2024-03-06T14:51:01;11.20;99.90
39019;DHT22;24786;51.984;5.872;2024-03-06T14:53:30;11.20;99.90
39019;DHT22;24786;51.984;5.872;2024-03-06T14:56:02;11.10;99.90
39019;DHT22;24786;51.984;5.872;2024-03-06T14:58:28;11.10;99.90
39019;DHT22;24786;51.984;5.872;2024-03-06T15:00:54;11.20;99.90
39019;DHT22;24786;51.984;5.872;2024-03-06T15:03:31;11.10;99.90
39019;DHT22;24786;51.984;5.872;2024-03-06T15:06:02;11.10;99.90
39019;DHT22;24786;51.984;5.872;2024-03-06T15:08:34;11.00;99.90
39019;DHT22;24786;51.984;5.872;2024-03-06T15:11:14;10.90;99.90
39019;DHT22;24786;51.984;5.872;2024-03-06T15:13:52;10.80;99.90
39019;DHT22;24786;51.984;5.872;2024-03-06T15:16:18;10.70;99.90
39019;DHT22;24786;51.984;5.872;2024-03-06T15:18:43;10.70;99.90
39019;DHT22;24786;51.984;5.872;2024-03-06T15:21:09;10.60;99.90
39019;DHT22;24786;51.984;5.872;2024-03-06T15:23:34;10.50;99.90
39019;DHT22;24786;51.984;5.872;2024-03-06T15:26:00;10.50;99.90
39019;DHT22;24786;51.984;5.872;2024-03-06T15:28:26;10.50;99.90
39019;DHT22;24786;51.984;5.872;2024-03-06T15:30:51;10.50;99.90
39019;DHT22;24786;51.984;5.872;2024-03-06T15:33:19;10.40;99.90
39019;DHT22;24786;51.984;5.872;2024-03-06T15:35:47;10.30;99.90
39019;DHT22;24786;51.984;5.872;2024-03-06T15:38:13;10.30;99.90
39019;DHT22;24786;51.984;5.872;2024-03-06T15:40:38;10.20;99.90
39019;DHT22;24786;51.984;5.872;2024-03-06T15:43:04;10.20;99.90
39019;DHT22;24786;51.984;5.872;2024-03-06T15:45:30;10.20;99.90
39019;DHT22;24786;51.984;5.872;2024-03-06T15:48:08;10.20;99.90
39019;DHT22;24786;51.984;5.872;2024-03-06T15:50:45;10.20;99.90
39019;DHT22;24786;51.984;5.872;2024-03-06T15:53:16;10.20;99.90
39019;DHT22;24786;51.984;5.872;2024-03-06T15:55:42;10.20;99.90
39019;DHT22;24786;51.984;5.872;2024-03-06T15:58:07;10.20;99.90
39019;DHT22;24786;51.984;5.872;2024-03-06T16:00:52;10.30;99.90
39019;DHT22;24786;51.984;5.872;2024-03-06T16:03:23;10.30;99.90
39019;DHT22;24786;51.984;5.872;2024-03-06T16:05:49;10.30;99.90
39019;DHT22;24786;51.984;5.872;2024-03-06T16:08:16;10.30;99.90
39019;DHT22;24786;51.984;5.872;2024-03-06T16:10:53;10.30;99.90
39019;DHT22;24786;51.984;5.872;2024-03-06T16:13:19;10.30;99.90
39019;DHT22;24786;51.984;5.872;2024-03-06T16:15:54;10.40;99.90
39019;DHT22;24786;51.984;5.872;2024-03-06T16:18:20;10.30;99.90
39019;DHT22;24786;51.984;5.872;2024-03-06T16:20:46;10.30;99.90
39019;DHT22;24786;51.984;5.872;2024-03-06T16:23:11;10.30;99.90
39019;DHT22;24786;51.984;5.872;2024-03-06T16:25:37;10.30;99.90
39019;DHT22;24786;51.984;5.872;2024-03-06T16:28:03;10.30;99.90
39019;DHT22;24786;51.984;5.872;2024-03-06T16:30:34;10.30;99.90
39019;DHT22;24786;51.984;5.872;2024-03-06T16:33:09;10.40;99.90
39019;DHT22;24786;51.984;5.872;2024-03-06T16:35:34;10.40;99.90
39019;DHT22;24786;51.984;5.872;2024-03-06T16:38:00;10.40;99.90
39019;DHT22;24786;51.984;5.872;2024-03-06T16:40:39;10.30;99.90
39019;DHT22;24786;51.984;5.872;2024-03-06T16:43:04;10.30;99.90
39019;DHT22;24786;51.984;5.872;2024-03-06T16:45:33;10.30;99.90
39019;DHT22;24786;51.984;5.872;2024-03-06T16:47:59;10.20;99.90
39019;DHT22;24786;51.984;5.872;2024-03-06T16:50:26;10.20;99.90
39019;DHT22;24786;51.984;5.872;2024-03-06T16:52:58;10.20;99.90
39019;DHT22;24786;51.984;5.872;2024-03-06T16:55:36;10.20;99.90
39019;DHT22;24786;51.984;5.872;2024-03-06T16:58:02;10.10;99.90
39019;DHT22;24786;51.984;5.872;2024-03-06T17:00:28;10.10;99.90
39019;DHT22;24786;51.984;5.872;2024-03-06T17:03:08;10.10;99.90
39019;DHT22;24786;51.984;5.872;2024-03-06T17:05:46;10.20;99.90
39019;DHT22;24786;51.984;5.872;2024-03-06T17:08:20;10.10;99.90
39019;DHT22;24786;51.984;5.872;2024-03-06T17:10:58;10.20;99.90
39019;DHT22;24786;51.984;5.872;2024-03-06T17:13:33;10.10;99.90
39019;DHT22;24786;51.984;5.872;2024-03-06T17:16:09;10.10;99.90
39019;DHT22;24786;51.984;5.872;2024-03-06T17:18:47;10.00;99.90
39019;DHT22;24786;51.984;5.872;2024-03-06T17:21:23;10.00;99.90
39019;DHT22;24786;51.984;5.872;2024-03-06T17:23:52;9.90;99.90
39019;DHT22;24786;51.984;5.872;2024-03-06T17:26:19;9.90;99.90